Time;durP1;ratioP1;P1;durP2;ratioP2;P2;SDS_P1;SDS_P2;PMS_P1;PMS_P2;Temp;Humidity;BMP_temperature;BMP_pressure;BME280_temperature;BME280_humidity;BME280_pressure;Samples;Min_cycle;Max_cycle;Signal;HPM_P1;HPM_P2
2022/09/13 00:01:34;;;;;;;18.13;8.48;;;;;;;;;;4987419;28;20050;-71
2022/09/13 00:04:04;;;;;;;15.00;7.25;;;;;;;;;;4987758;28;20061;-73
2022/09/13 00:06:34;;;;;;;15.48;7.38;;;;;;;;;;4986859;28;20046;-73
2022/09/13 00:09:05;;;;;;;22.65;7.80;;;;;;;;;;4986139;28;20054;-72
2022/09/13 00:11:35;;;;;;;19.80;8.02;;;;;;;;;;4987291;28;20046;-72
2022/09/13 00:14:04;;;;;;;22.35;8.07;;;;;;;;;;4986804;28;20050;-72
2022/09/13 00:16:34;;;;;;;17.13;8.63;;;;;;;;;;4986859;28;20061;-73
2022/09/13 00:19:04;;;;;;;16.15;8.15;;;;;;;;;;4987116;28;20050;-71
2022/09/13 00:21:34;;;;;;;18.42;8.32;;;;;;;;;;4987502;28;20046;-74
2022/09/13 00:24:05;;;;;;;17.30;7.88;;;;;;;;;;4987422;28;20077;-73
2022/09/13 00:26:34;;;;;;;16.65;7.35;;;;;;;;;;4986926;28;20493;-72
2022/09/13 00:29:04;;;;;;;28.42;8.10;;;;;;;;;;4986807;28;20045;-72
2022/09/13 00:31:34;;;;;;;15.30;7.28;;;;;;;;;;4987380;28;20050;-71
2022/09/13 00:34:04;;;;;;;17.98;7.97;;;;;;;;;;4986741;28;20054;-73
2022/09/13 00:36:34;;;;;;;15.30;7.82;;;;;;;;;;4987424;28;20054;-72
2022/09/13 00:39:03;;;;;;;17.92;8.85;;;;;;;;;;4986393;28;20053;-73
2022/09/13 00:41:34;;;;;;;20.70;9.23;;;;;;;;;;4988243;28;20061;-72
2022/09/13 00:44:24;;;;;;;24.00;8.48;;;;;;;;;;4990633;28;20046;-73
2022/09/13 00:46:55;;;;;;;19.08;8.25;;;;;;;;;;4990750;28;20073;-71
2022/09/13 00:49:35;;;;;;;18.13;8.35;;;;;;;;;;4991032;28;20046;-71
2022/09/13 00:52:11;;;;;;;24.08;8.93;;;;;;;;;;4991106;28;20544;-72
2022/09/13 00:54:56;;;;;;;18.70;9.40;;;;;;;;;;4990296;28;20542;-72
2022/09/13 00:57:30;;;;;;;20.63;9.27;;;;;;;;;;4991126;28;20042;-72
2022/09/13 01:00:13;;;;;;;16.52;7.80;;;;;;;;;;4990679;28;20058;-73
2022/09/13 01:02:57;;;;;;;17.50;8.73;;;;;;;;;;4988242;28;20054;-73
2022/09/13 01:05:38;;;;;;;16.02;8.30;;;;;;;;;;4990282;28;20405;-72
2022/09/13 01:08:16;;;;;;;18.83;9.07;;;;;;;;;;4989821;28;20054;-72
2022/09/13 01:10:48;;;;;;;21.27;10.77;;;;;;;;;;4989980;28;20046;-71
2022/09/13 01:13:22;;;;;;;20.42;9.35;;;;;;;;;;4990418;28;20060;-70
2022/09/13 01:15:52;;;;;;;19.83;8.48;;;;;;;;;;4990346;28;20512;-73
2022/09/13 01:18:22;;;;;;;20.73;10.48;;;;;;;;;;4990487;28;20065;-72
2022/09/13 01:20:55;;;;;;;18.85;9.48;;;;;;;;;;4989538;28;20429;-71
2022/09/13 01:23:58;;;;;;;17.40;9.50;;;;;;;;;;4990500;28;20072;-71
2022/09/13 01:26:55;;;;;;;22.08;10.13;;;;;;;;;;4989054;28;20045;-72
2022/09/13 01:30:02;;;;;;;20.70;9.18;;;;;;;;;;4986473;28;20065;-72
2022/09/13 01:32:44;;;;;;;18.73;8.27;;;;;;;;;;4989762;28;20042;-73
2022/09/13 01:35:31;;;;;;;19.17;9.45;;;;;;;;;;4989310;28;20505;-73
2022/09/13 01:38:20;;;;;;;17.10;9.40;;;;;;;;;;4989876;28;20042;-71
2022/09/13 01:41:24;;;;;;;16.15;9.40;;;;;;;;;;4990164;28;20387;-71
2022/09/13 01:44:17;;;;;;;26.00;10.80;;;;;;;;;;4991294;28;20058;-72
2022/09/13 01:46:54;;;;;;;21.85;9.80;;;;;;;;;;4997330;28;20093;-73
2022/09/13 01:49:33;;;;;;;21.20;10.32;;;;;;;;;;4989692;28;20427;-73
2022/09/13 01:52:09;;;;;;;23.88;11.93;;;;;;;;;;4990250;28;20061;-73
2022/09/13 01:54:59;;;;;;;20.95;9.93;;;;;;;;;;4988816;28;20532;-73
2022/09/13 01:57:48;;;;;;;24.85;11.20;;;;;;;;;;4989673;28;20046;-73
2022/09/13 02:00:19;;;;;;;26.20;10.40;;;;;;;;;;4989184;28;20114;-71
2022/09/13 02:03:03;;;;;;;31.48;10.43;;;;;;;;;;4989266;28;20057;-71
2022/09/13 02:05:42;;;;;;;20.60;9.85;;;;;;;;;;4989431;28;20046;-71
2022/09/13 02:08:18;;;;;;;28.17;10.38;;;;;;;;;;4989511;28;20065;-73
2022/09/13 02:10:54;;;;;;;22.15;9.93;;;;;;;;;;4989032;28;20809;-72
2022/09/13 02:13:29;;;;;;;21.42;9.95;;;;;;;;;;4989365;28;20045;-73
2022/09/13 02:16:06;;;;;;;23.48;10.68;;;;;;;;;;4989266;28;20053;-72
2022/09/13 02:19:06;;;;;;;28.42;10.20;;;;;;;;;;4989427;28;20046;-70
2022/09/13 02:21:43;;;;;;;20.90;8.88;;;;;;;;;;4989130;28;20045;-71
2022/09/13 02:24:22;;;;;;;20.00;9.10;;;;;;;;;;4989317;28;20057;-71
2022/09/13 02:26:53;;;;;;;21.20;8.50;;;;;;;;;;4988865;28;20058;-70
2022/09/13 02:29:27;;;;;;;24.05;9.40;;;;;;;;;;4988979;28;20042;-70
2022/09/13 02:32:09;;;;;;;21.70;8.63;;;;;;;;;;4989255;28;20816;-73
2022/09/13 02:35:15;;;;;;;20.75;7.22;;;;;;;;;;4988727;28;20061;-73
2022/09/13 02:37:51;;;;;;;21.90;9.98;;;;;;;;;;5002102;28;20069;-71
2022/09/13 02:40:27;;;;;;;20.60;8.18;;;;;;;;;;4988770;28;20042;-71
2022/09/13 02:43:33;;;;;;;19.23;8.57;;;;;;;;;;4988577;28;20046;-72
2022/09/13 02:46:19;;;;;;;16.83;6.57;;;;;;;;;;4997069;28;20088;-71
2022/09/13 02:49:25;;;;;;;17.58;7.18;;;;;;;;;;4988745;28;20042;-72
2022/09/13 02:52:01;;;;;;;15.52;7.45;;;;;;;;;;4994366;28;20134;-73
2022/09/13 02:54:47;;;;;;;14.60;6.38;;;;;;;;;;4988424;28;20042;-72
2022/09/13 02:57:42;;;;;;;15.90;7.03;;;;;;;;;;4988655;28;20065;-72
2022/09/13 03:00:12;;;;;;;15.88;6.38;;;;;;;;;;4988660;28;20050;-73
2022/09/13 03:02:44;;;;;;;15.05;7.35;;;;;;;;;;4987940;28;20050;-72
2022/09/13 03:05:14;;;;;;;12.52;6.88;;;;;;;;;;4987507;28;20049;-73
2022/09/13 03:07:45;;;;;;;13.10;7.57;;;;;;;;;;4988184;28;20046;-70
2022/09/13 03:10:17;;;;;;;18.83;6.88;;;;;;;;;;4988615;28;20050;-70
2022/09/13 03:13:21;;;;;;;15.38;7.32;;;;;;;;;;4988264;28;20053;-72
2022/09/13 03:16:22;;;;;;;12.52;5.93;;;;;;;;;;4987856;28;20051;-71
2022/09/13 03:19:17;;;;;;;14.75;6.65;;;;;;;;;;4987870;28;20053;-73
2022/09/13 03:22:25;;;;;;;14.35;7.20;;;;;;;;;;5002917;28;20061;-71
2022/09/13 03:25:10;;;;;;;14.57;7.55;;;;;;;;;;4987759;28;20126;-73
2022/09/13 03:28:17;;;;;;;13.52;6.70;;;;;;;;;;4987767;28;20843;-71
2022/09/13 03:31:00;;;;;;;15.18;6.70;;;;;;;;;;4988399;28;20039;-71
2022/09/13 03:33:55;;;;;;;12.30;5.60;;;;;;;;;;4987852;28;20042;-73
2022/09/13 03:36:32;;;;;;;20.35;6.63;;;;;;;;;;4987898;28;20046;-73
2022/09/13 03:39:08;;;;;;;19.52;6.97;;;;;;;;;;4988090;28;20524;-72
2022/09/13 03:41:50;;;;;;;12.95;6.38;;;;;;;;;;4987494;28;20521;-72
2022/09/13 03:44:23;;;;;;;9.95;5.78;;;;;;;;;;4987576;28;20046;-72
2022/09/13 03:46:57;;;;;;;12.73;5.55;;;;;;;;;;4988139;28;20515;-71
2022/09/13 03:49:29;;;;;;;9.63;6.05;;;;;;;;;;4988035;28;20035;-72
2022/09/13 03:51:59;;;;;;;10.90;5.60;;;;;;;;;;4987765;28;20065;-71
2022/09/13 03:54:31;;;;;;;10.02;5.57;;;;;;;;;;4987466;28;20046;-71
2022/09/13 03:57:22;;;;;;;9.55;5.22;;;;;;;;;;4987182;28;20504;-71
2022/09/13 03:59:54;;;;;;;9.60;5.47;;;;;;;;;;4987557;28;20061;-70
2022/09/13 04:02:25;;;;;;;10.75;6.15;;;;;;;;;;4987526;28;20057;-72
2022/09/13 04:04:55;;;;;;;12.73;6.20;;;;;;;;;;4987681;28;20050;-71
2022/09/13 04:07:25;;;;;;;11.80;6.15;;;;;;;;;;4987275;28;20409;-73
2022/09/13 04:09:55;;;;;;;11.60;5.78;;;;;;;;;;4987511;28;20065;-72
2022/09/13 04:12:25;;;;;;;14.38;6.72;;;;;;;;;;4987316;28;20382;-71
2022/09/13 04:14:56;;;;;;;11.70;6.20;;;;;;;;;;4987197;28;20046;-71
2022/09/13 04:17:25;;;;;;;13.95;6.43;;;;;;;;;;4987432;28;20513;-70
2022/09/13 04:19:55;;;;;;;17.20;6.35;;;;;;;;;;4986977;28;20051;-72
2022/09/13 04:22:25;;;;;;;12.30;5.50;;;;;;;;;;4986996;28;20042;-71
2022/09/13 04:24:55;;;;;;;10.05;6.10;;;;;;;;;;4987816;28;20065;-70
2022/09/13 04:27:30;;;;;;;13.73;6.43;;;;;;;;;;4987225;28;20050;-70
2022/09/13 04:29:59;;;;;;;15.35;6.90;;;;;;;;;;4987806;28;20066;-72
2022/09/13 04:32:29;;;;;;;15.60;7.18;;;;;;;;;;5001506;28;20096;-73
2022/09/13 04:35:00;;;;;;;12.20;6.03;;;;;;;;;;4987034;28;20097;-72
2022/09/13 04:37:29;;;;;;;11.00;5.80;;;;;;;;;;4987091;28;20061;-71
2022/09/13 04:39:59;;;;;;;10.18;6.20;;;;;;;;;;4987229;28;20057;-71
2022/09/13 04:42:29;;;;;;;12.80;6.82;;;;;;;;;;4986678;28;20035;-73
2022/09/13 04:44:59;;;;;;;15.07;6.93;;;;;;;;;;4987224;28;20046;-72
2022/09/13 04:47:29;;;;;;;12.95;6.72;;;;;;;;;;4987353;28;20050;-71
2022/09/13 04:49:59;;;;;;;14.02;6.00;;;;;;;;;;4986768;28;20046;-71
2022/09/13 04:52:29;;;;;;;10.30;5.85;;;;;;;;;;4987361;28;20053;-71
2022/09/13 04:55:00;;;;;;;18.48;6.47;;;;;;;;;;4987375;28;20046;-73
2022/09/13 04:57:30;;;;;;;17.73;6.32;;;;;;;;;;4986628;28;20065;-73
2022/09/13 05:00:00;;;;;;;14.55;6.75;;;;;;;;;;4986994;28;20050;-71
2022/09/13 05:02:30;;;;;;;15.48;7.05;;;;;;;;;;4986985;28;20050;-71
2022/09/13 05:05:02;;;;;;;14.95;7.60;;;;;;;;;;4986987;28;20054;-73
2022/09/13 05:07:31;;;;;;;13.45;6.88;;;;;;;;;;4986753;28;20042;-72
2022/09/13 05:10:01;;;;;;;17.60;7.53;;;;;;;;;;4986691;28;20050;-72
2022/09/13 05:12:31;;;;;;;13.65;7.30;;;;;;;;;;4986818;28;20508;-71
2022/09/13 05:15:01;;;;;;;20.27;7.78;;;;;;;;;;4986652;28;20054;-72
2022/09/13 05:17:30;;;;;;;14.38;6.93;;;;;;;;;;4986616;28;20053;-72
2022/09/13 05:20:00;;;;;;;15.57;8.70;;;;;;;;;;4987016;28;20057;-73
2022/09/13 05:22:30;;;;;;;23.25;8.35;;;;;;;;;;4987000;28;20038;-72
2022/09/13 05:25:00;;;;;;;14.00;7.40;;;;;;;;;;4986874;28;20054;-72
2022/09/13 05:27:29;;;;;;;16.00;7.63;;;;;;;;;;4986580;28;20046;-72
2022/09/13 05:29:59;;;;;;;14.68;8.02;;;;;;;;;;4989966;28;20049;-72
2022/09/13 05:32:31;;;;;;;15.50;8.68;;;;;;;;;;4990043;28;20497;-73
2022/09/13 05:35:01;;;;;;;16.70;9.18;;;;;;;;;;4990141;28;20509;-71
2022/09/13 05:37:32;;;;;;;13.38;6.85;;;;;;;;;;4990193;28;20153;-73
2022/09/13 05:40:03;;;;;;;16.25;7.15;;;;;;;;;;4989689;28;20054;-72
2022/09/13 05:42:39;;;;;;;16.75;8.10;;;;;;;;;;4990011;28;20050;-72
2022/09/13 05:45:09;;;;;;;14.45;7.25;;;;;;;;;;4990000;28;20051;-70
2022/09/13 05:47:39;;;;;;;14.35;7.95;;;;;;;;;;4990001;28;20057;-72
2022/09/13 05:50:09;;;;;;;17.77;7.45;;;;;;;;;;4989727;28;20390;-72
2022/09/13 05:53:00;;;;;;;13.93;8.02;;;;;;;;;;4989911;28;20053;-71
2022/09/13 05:55:29;;;;;;;;;;;;;;;;;;4989872;28;20122;-72
2022/09/13 05:58:02;;;;;;;17.05;7.40;;;;;;;;;;4989024;28;19926;-73
2022/09/13 06:00:32;;;;;;;17.73;7.57;;;;;;;;;;4989797;28;20058;-71
2022/09/13 06:03:01;;;;;;;;;;;;;;;;;;4989829;28;20564;-72
2022/09/13 06:05:31;;;;;;;13.85;6.32;;;;;;;;;;4989844;28;19922;-73
2022/09/13 06:08:00;;;;;;;;;;;;;;;;;;4989406;28;20054;-71
2022/09/13 06:10:30;;;;;;;17.92;7.60;;;;;;;;;;4987604;28;19926;-72
2022/09/13 06:13:00;;;;;;;19.27;7.90;;;;;;;;;;4990066;28;20046;-71
2022/09/13 06:15:30;;;;;;;17.58;7.43;;;;;;;;;;4989335;28;20045;-72
2022/09/13 06:17:59;;;;;;;13.82;7.15;;;;;;;;;;4987861;28;20057;-72
2022/09/13 06:20:29;;;;;;;13.85;7.75;;;;;;;;;;4989160;28;20043;-70
2022/09/13 06:22:59;;;;;;;13.23;8.13;;;;;;;;;;4988976;28;20061;-72
2022/09/13 06:25:29;;;;;;;14.88;6.85;;;;;;;;;;4989107;28;20046;-72
2022/09/13 06:27:59;;;;;;;10.48;6.95;;;;;;;;;;4988766;28;20046;-70
2022/09/13 06:30:29;;;;;;;16.70;6.93;;;;;;;;;;4988954;28;20038;-70
2022/09/13 06:32:59;;;;;;;16.55;7.05;;;;;;;;;;4988947;28;20332;-71
2022/09/13 06:35:29;;;;;;;17.40;7.25;;;;;;;;;;4989076;28;20058;-72
2022/09/13 06:37:58;;;;;;;12.27;6.95;;;;;;;;;;4989075;28;20046;-72
2022/09/13 06:40:28;;;;;;;18.10;7.47;;;;;;;;;;4989195;28;20054;-72
2022/09/13 06:42:58;;;;;;;15.18;6.70;;;;;;;;;;4989028;28;20062;-71
2022/09/13 06:45:28;;;;;;;16.65;7.38;;;;;;;;;;4988861;28;20394;-71
2022/09/13 06:47:58;;;;;;;18.15;7.93;;;;;;;;;;4988698;28;20505;-70
2022/09/13 06:50:28;;;;;;;19.08;8.32;;;;;;;;;;4988565;28;20046;-70
2022/09/13 06:52:58;;;;;;;14.00;7.25;;;;;;;;;;4988473;28;20057;-73
2022/09/13 06:55:28;;;;;;;15.23;7.50;;;;;;;;;;4988491;28;20046;-73
2022/09/13 06:57:58;;;;;;;17.70;9.02;;;;;;;;;;4988286;28;20527;-71
2022/09/13 07:00:27;;;;;;;20.67;7.95;;;;;;;;;;4988914;28;20050;-72
2022/09/13 07:02:57;;;;;;;14.45;6.78;;;;;;;;;;4988367;28;20489;-72
2022/09/13 07:05:27;;;;;;;13.93;6.68;;;;;;;;;;4988815;28;20101;-70
2022/09/13 07:07:56;;;;;;;;;;;;;;;;;;4988595;28;20050;-73
2022/09/13 07:10:26;;;;;;;14.40;7.65;;;;;;;;;;4988050;28;19940;-72
2022/09/13 07:12:56;;;;;;;15.13;6.40;;;;;;;;;;4988385;28;20528;-72
2022/09/13 07:15:25;;;;;;;15.93;6.90;;;;;;;;;;4987946;28;20054;-71
2022/09/13 07:17:55;;;;;;;11.98;6.30;;;;;;;;;;4988072;28;20039;-73
2022/09/13 07:20:25;;;;;;;14.73;6.30;;;;;;;;;;4988022;28;20429;-72
2022/09/13 07:22:54;;;;;;;;;;;;;;;;;;4988546;28;20061;-70
2022/09/13 07:25:24;;;;;;;10.68;6.13;;;;;;;;;;4987700;28;19926;-71
2022/09/13 07:27:53;;;;;;;;;;;;;;;;;;4988310;28;20391;-72
2022/09/13 07:30:25;;;;;;;12.55;6.22;;;;;;;;;;4988441;28;20035;-72
2022/09/13 07:32:56;;;;;;;9.38;5.70;;;;;;;;;;4988071;28;20042;-70
2022/09/13 07:35:25;;;;;;;11.30;5.53;;;;;;;;;;4987767;28;20057;-71
2022/09/13 07:37:55;;;;;;;13.13;6.57;;;;;;;;;;4987998;28;20050;-71
2022/09/13 07:40:25;;;;;;;14.57;6.45;;;;;;;;;;4987766;28;20049;-73
2022/09/13 07:42:54;;;;;;;;;;;;;;;;;;4988191;28;20062;-72
2022/09/13 07:45:24;;;;;;;17.33;6.45;;;;;;;;;;4988055;28;19944;-72
2022/09/13 07:47:54;;;;;;;15.48;7.05;;;;;;;;;;4986231;28;20524;-73
2022/09/13 07:50:24;;;;;;;14.30;7.07;;;;;;;;;;4986945;28;20066;-70
2022/09/13 07:52:53;;;;;;;;;;;;;;;;;;4987196;28;20061;-73
2022/09/13 07:55:23;;;;;;;13.32;6.18;;;;;;;;;;4987561;28;19930;-72
2022/09/13 07:57:52;;;;;;;;;;;;;;;;;;4987527;28;20409;-72
2022/09/13 08:00:24;;;;;;;18.25;5.80;;;;;;;;;;4987778;28;19932;-72
2022/09/13 08:02:54;;;;;;;11.82;6.28;;;;;;;;;;4987182;28;20508;-71
2022/09/13 08:05:24;;;;;;;15.40;6.82;;;;;;;;;;4987377;28;20042;-72
2022/09/13 08:07:54;;;;;;;13.65;5.95;;;;;;;;;;4987261;28;20061;-71
2022/09/13 08:10:23;;;;;;;;;;;;;;;;;;4987996;28;20042;-70
2022/09/13 08:12:53;;;;;;;15.63;6.65;;;;;;;;;;4987492;28;19956;-73
2022/09/13 08:15:24;;;;;;;12.38;6.63;;;;;;;;;;4986911;28;20324;-71
2022/09/13 08:17:53;;;;;;;9.48;6.18;;;;;;;;;;4985769;28;20054;-71
2022/09/13 08:20:23;;;;;;;15.13;6.35;;;;;;;;;;4987516;28;20050;-70
2022/09/13 08:22:53;;;;;;;;;;;;;;;;;;4988089;28;20053;-71
2022/09/13 08:25:23;;;;;;;14.98;7.63;;;;;;;;;;4988431;28;19928;-72
2022/09/13 08:27:53;;;;;;;18.73;7.35;;;;;;;;;;4987341;28;20050;-72
2022/09/13 08:30:23;;;;;;;18.45;6.95;;;;;;;;;;4987297;28;20058;-72
2022/09/13 08:32:53;;;;;;;21.10;7.50;;;;;;;;;;4987166;28;20062;-73
2022/09/13 08:35:22;;;;;;;;;;;;;;;;;;4987358;28;20038;-72
2022/09/13 08:37:51;;;;;;;19.75;7.80;;;;;;;;;;4986962;28;19937;-70
2022/09/13 08:40:25;;;;;;;14.90;7.63;;;;;;;;;;4987450;28;20074;-71
2022/09/13 08:43:04;;;;;;;17.02;7.38;;;;;;;;;;4986844;28;20058;-72
2022/09/13 08:45:34;;;;;;;22.55;7.60;;;;;;;;;;4986712;28;20398;-73
2022/09/13 08:48:12;;;;;;;15.65;7.28;;;;;;;;;;4986909;28;20054;-72
2022/09/13 08:50:44;;;;;;;11.75;6.53;;;;;;;;;;4985661;28;20054;-73
2022/09/13 08:53:27;;;;;;;13.25;7.95;;;;;;;;;;4986734;28;20535;-72
2022/09/13 08:56:19;;;;;;;16.08;6.57;;;;;;;;;;4986687;28;20053;-73
2022/09/13 08:59:07;;;;;;;15.98;7.90;;;;;;;;;;4987023;28;20501;-73
2022/09/13 09:02:01;;;;;;;15.70;7.80;;;;;;;;;;4986703;28;20046;-72
2022/09/13 09:04:39;;;;;;;16.48;7.13;;;;;;;;;;4989601;28;20050;-72
2022/09/13 09:07:18;;;;;;;16.80;7.63;;;;;;;;;;4990256;28;20046;-72
2022/09/13 09:09:56;;;;;;;17.15;7.07;;;;;;;;;;4990374;28;20053;-72
2022/09/13 09:12:38;;;;;;;12.85;6.88;;;;;;;;;;4990412;28;20525;-73
2022/09/13 09:15:22;;;;;;;18.30;6.85;;;;;;;;;;4990896;28;20508;-72
2022/09/13 09:18:01;;;;;;;14.55;6.32;;;;;;;;;;4990372;28;20417;-73
2022/09/13 09:20:35;;;;;;;10.57;6.15;;;;;;;;;;4990194;28;20061;-73
2022/09/13 09:23:21;;;;;;;13.30;6.25;;;;;;;;;;4989018;28;20505;-72
2022/09/13 09:25:56;;;;;;;12.77;6.13;;;;;;;;;;4990467;28;20039;-72
2022/09/13 09:28:30;;;;;;;12.75;6.85;;;;;;;;;;4990758;28;20053;-71
2022/09/13 09:31:38;;;;;;;11.77;6.03;;;;;;;;;;4990035;28;20054;-73
2022/09/13 09:34:21;;;;;;;17.67;6.97;;;;;;;;;;4990323;28;20053;-71
2022/09/13 09:37:10;;;;;;;24.27;7.38;;;;;;;;;;4990067;28;20042;-71
2022/09/13 09:39:41;;;;;;;22.50;7.93;;;;;;;;;;4990081;28;20057;-76
2022/09/13 09:42:24;;;;;;;19.88;7.80;;;;;;;;;;4990403;28;20053;-72
2022/09/13 09:45:23;;;;;;;24.55;9.02;;;;;;;;;;4989895;28;20043;-72
2022/09/13 09:47:55;;;;;;;20.65;8.70;;;;;;;;;;4988380;28;20063;-73
2022/09/13 09:50:30;;;;;;;19.65;9.75;;;;;;;;;;4989903;28;20061;-72
2022/09/13 09:53:07;;;;;;;24.75;11.05;;;;;;;;;;4989803;28;20501;-72
2022/09/13 09:55:46;;;;;;;17.23;9.63;;;;;;;;;;4990296;28;20042;-73
2022/09/13 09:58:17;;;;;;;18.20;7.75;;;;;;;;;;4990307;28;20054;-74
2022/09/13 10:00:56;;;;;;;15.07;9.25;;;;;;;;;;4989357;28;20053;-72
2022/09/13 10:03:29;;;;;;;22.83;9.35;;;;;;;;;;4989254;28;20054;-71
2022/09/13 10:06:14;;;;;;;20.90;9.30;;;;;;;;;;4990017;28;20050;-72
2022/09/13 10:09:03;;;;;;;21.50;10.80;;;;;;;;;;4989596;28;20034;-72
2022/09/13 10:11:47;;;;;;;23.95;8.73;;;;;;;;;;4989247;28;20513;-72
2022/09/13 10:14:32;;;;;;;21.33;9.00;;;;;;;;;;4989009;28;20413;-71
2022/09/13 10:17:18;;;;;;;21.80;8.73;;;;;;;;;;4989147;28;20057;-74
2022/09/13 10:20:16;;;;;;;19.92;8.85;;;;;;;;;;4988733;28;20050;-71
2022/09/13 10:23:15;;;;;;;26.50;9.63;;;;;;;;;;4988579;28;20058;-73
2022/09/13 10:25:57;;;;;;;13.63;7.70;;;;;;;;;;4989616;28;20050;-77
2022/09/13 10:28:31;;;;;;;14.18;7.82;;;;;;;;;;4988779;28;20054;-72
2022/09/13 10:31:05;;;;;;;17.98;9.00;;;;;;;;;;4988608;28;20042;-72
2022/09/13 10:33:41;;;;;;;15.32;8.95;;;;;;;;;;4989202;28;20588;-73
2022/09/13 10:36:21;;;;;;;23.90;8.27;;;;;;;;;;4989361;28;20498;-71
2022/09/13 10:39:18;;;;;;;18.88;8.68;;;;;;;;;;4989467;28;20061;-73
2022/09/13 10:41:56;;;;;;;16.63;9.02;;;;;;;;;;4989347;28;20053;-71
2022/09/13 10:44:29;;;;;;;26.50;9.30;;;;;;;;;;4988618;28;20057;-73
2022/09/13 10:47:05;;;;;;;18.40;7.22;;;;;;;;;;4989275;28;20042;-72
2022/09/13 10:49:42;;;;;;;19.23;7.93;;;;;;;;;;4988633;28;20077;-72
2022/09/13 10:52:31;;;;;;;15.63;7.63;;;;;;;;;;4988419;28;20054;-72
2022/09/13 10:55:27;;;;;;;14.05;8.10;;;;;;;;;;4988390;28;20057;-72
2022/09/13 10:58:03;;;;;;;20.48;8.88;;;;;;;;;;4989616;28;20441;-72
2022/09/13 11:00:42;;;;;;;14.13;8.13;;;;;;;;;;4989172;28;20051;-73
2022/09/13 11:03:30;;;;;;;14.38;8.20;;;;;;;;;;4988784;28;20050;-73
2022/09/13 11:06:09;;;;;;;13.80;8.20;;;;;;;;;;4988155;28;20050;-72
2022/09/13 11:09:12;;;;;;;22.65;8.27;;;;;;;;;;4988415;28;20065;-74
2022/09/13 11:12:04;;;;;;;15.63;7.32;;;;;;;;;;4988183;28;20054;-71
2022/09/13 11:14:49;;;;;;;13.07;6.45;;;;;;;;;;4987996;28;20053;-79
2022/09/13 11:17:35;;;;;;;18.27;7.18;;;;;;;;;;4988290;28;20069;-76
2022/09/13 11:20:44;;;;;;;14.05;7.00;;;;;;;;;;4987920;28;20355;-71
2022/09/13 11:23:39;;;;;;;19.33;6.72;;;;;;;;;;4989827;28;20063;-73
2022/09/13 11:26:27;;;;;;;17.48;7.63;;;;;;;;;;4987651;28;20046;-74
2022/09/13 11:29:00;;;;;;;17.85;8.05;;;;;;;;;;4986661;28;20489;-72
2022/09/13 11:31:33;;;;;;;11.18;6.25;;;;;;;;;;4985332;28;20050;-72
2022/09/13 11:34:36;;;;;;;13.27;7.00;;;;;;;;;;4985461;28;20058;-72
2022/09/13 11:37:31;;;;;;;13.13;6.22;;;;;;;;;;4986773;28;20412;-74
2022/09/13 11:40:36;;;;;;;11.80;6.75;;;;;;;;;;4985368;28;20061;-72
2022/09/13 11:43:32;;;;;;;18.92;7.30;;;;;;;;;;4986770;28;20502;-72
2022/09/13 11:46:11;;;;;;;11.15;6.05;;;;;;;;;;4987595;28;20051;-71
2022/09/13 11:48:52;;;;;;;19.05;7.70;;;;;;;;;;4986518;28;20470;-73
2022/09/13 11:51:39;;;;;;;16.48;5.90;;;;;;;;;;4988141;28;20055;-75
2022/09/13 11:54:31;;;;;;;13.38;6.20;;;;;;;;;;4987713;28;20508;-74
2022/09/13 11:57:09;;;;;;;12.85;6.60;;;;;;;;;;4986214;28;20528;-73
2022/09/13 11:59:57;;;;;;;13.88;6.55;;;;;;;;;;4987463;28;20057;-73
2022/09/13 12:02:38;;;;;;;15.50;6.68;;;;;;;;;;4986147;28;20983;-74
2022/09/13 12:05:15;;;;;;;14.57;6.43;;;;;;;;;;4987164;28;20050;-75
2022/09/13 12:08:18;;;;;;;9.00;5.65;;;;;;;;;;4985830;28;20058;-74
2022/09/13 12:10:51;;;;;;;12.02;5.35;;;;;;;;;;4986765;28;20061;-72
2022/09/13 12:13:42;;;;;;;17.33;6.03;;;;;;;;;;4987272;28;20058;-72
2022/09/13 12:16:21;;;;;;;14.18;6.13;;;;;;;;;;4987556;28;20046;-72
2022/09/13 12:18:59;;;;;;;14.73;5.53;;;;;;;;;;4988000;28;20406;-73
2022/09/13 12:21:41;;;;;;;14.38;5.97;;;;;;;;;;4987272;28;20057;-71
2022/09/13 12:25:04;;;;;;;13.68;6.30;;;;;;;;;;4986762;28;20057;-74
2022/09/13 12:27:42;;;;;;;10.60;5.80;;;;;;;;;;4955871;28;20046;-74
2022/09/13 12:30:19;;;;;;;15.32;6.65;;;;;;;;;;4987207;28;20050;-74
2022/09/13 12:32:51;;;;;;;17.20;7.95;;;;;;;;;;4986894;28;20038;-72
2022/09/13 12:35:32;;;;;;;9.90;5.45;;;;;;;;;;4986835;28;20524;-71
2022/09/13 12:38:11;;;;;;;14.48;5.57;;;;;;;;;;4989930;28;20390;-75
2022/09/13 12:40:57;;;;;;;11.85;5.38;;;;;;;;;;4990966;28;20576;-73
2022/09/13 12:43:50;;;;;;;10.48;5.80;;;;;;;;;;4991122;28;20051;-71
2022/09/13 12:46:50;;;;;;;8.98;5.20;;;;;;;;;;4990850;28;20046;-73
2022/09/13 12:49:26;;;;;;;11.85;6.85;;;;;;;;;;4991108;28;20038;-74
2022/09/13 12:52:14;;;;;;;11.18;6.18;;;;;;;;;;4989789;28;20054;-73
2022/09/13 12:55:12;;;;;;;8.13;4.78;;;;;;;;;;4990752;28;20046;-72
2022/09/13 12:58:20;;;;;;;15.65;5.30;;;;;;;;;;4993480;28;20058;-70
2022/09/13 13:01:32;;;;;;;11.70;4.95;;;;;;;;;;4993845;28;20114;-72
2022/09/13 13:04:11;;;;;;;13.85;6.22;;;;;;;;;;4990795;28;20390;-75
2022/09/13 13:06:49;;;;;;;11.88;5.65;;;;;;;;;;4990798;28;20054;-73
2022/09/13 13:09:34;;;;;;;14.50;6.10;;;;;;;;;;4991311;28;20054;-74
2022/09/13 13:12:04;;;;;;;11.95;7.88;;;;;;;;;;4990690;28;20050;-75
2022/09/13 13:14:41;;;;;;;16.33;6.72;;;;;;;;;;4990679;28;20038;-72
2022/09/13 13:17:41;;;;;;;9.60;5.35;;;;;;;;;;4990893;28;20046;-76
2022/09/13 13:20:40;;;;;;;13.38;6.93;;;;;;;;;;4989784;28;20038;-72
2022/09/13 13:23:30;;;;;;;13.90;5.65;;;;;;;;;;4989900;28;20497;-73
2022/09/13 13:26:08;;;;;;;10.98;5.55;;;;;;;;;;4990476;28;20050;-74
2022/09/13 13:28:49;;;;;;;12.32;5.45;;;;;;;;;;4989823;28;20050;-75
2022/09/13 13:31:27;;;;;;;10.00;5.90;;;;;;;;;;4990167;28;20065;-73
2022/09/13 13:34:05;;;;;;;9.45;5.55;;;;;;;;;;4990406;28;20046;-73
2022/09/13 13:36:41;;;;;;;10.07;6.13;;;;;;;;;;4990550;28;20532;-76
2022/09/13 13:39:23;;;;;;;10.32;5.47;;;;;;;;;;4989798;28;20046;-72
2022/09/13 13:42:14;;;;;;;13.57;9.65;;;;;;;;;;4990540;28;20043;-72
2022/09/13 13:44:44;;;;;;;12.82;7.63;;;;;;;;;;4990079;28;20065;-73
2022/09/13 13:47:14;;;;;;;12.07;8.02;;;;;;;;;;4989939;28;20043;-75
2022/09/13 13:49:51;;;;;;;13.90;7.25;;;;;;;;;;4988902;28;20046;-73
2022/09/13 13:52:25;;;;;;;12.07;6.40;;;;;;;;;;4989377;28;20049;-75
2022/09/13 13:54:59;;;;;;;10.32;5.90;;;;;;;;;;4988330;28;20501;-74
2022/09/13 13:57:41;;;;;;;15.20;6.22;;;;;;;;;;4989927;28;20050;-77
2022/09/13 14:00:13;;;;;;;9.77;5.32;;;;;;;;;;4990084;28;20054;-74
2022/09/13 14:02:49;;;;;;;12.73;6.40;;;;;;;;;;4989622;28;20410;-75
2022/09/13 14:05:38;;;;;;;11.07;6.90;;;;;;;;;;4988464;28;20494;-73
2022/09/13 14:08:18;;;;;;;12.43;6.75;;;;;;;;;;4989530;28;20054;-73
2022/09/13 14:11:15;;;;;;;13.00;6.57;;;;;;;;;;4989601;28;20061;-74
2022/09/13 14:13:54;;;;;;;12.32;6.70;;;;;;;;;;4989154;28;20053;-75
2022/09/13 14:16:42;;;;;;;9.60;6.38;;;;;;;;;;4989259;28;20043;-72
2022/09/13 14:19:30;;;;;;;12.63;9.10;;;;;;;;;;4989671;28;20038;-74
2022/09/13 14:22:21;;;;;;;12.35;6.45;;;;;;;;;;4989295;28;20053;-75
2022/09/13 14:24:54;;;;;;;8.98;5.95;;;;;;;;;;4989496;28;20069;-75
2022/09/13 14:27:34;;;;;;;12.32;6.68;;;;;;;;;;4989135;28;20521;-76
2022/09/13 14:30:20;;;;;;;11.07;6.70;;;;;;;;;;4989497;28;20057;-73
2022/09/13 14:32:53;;;;;;;13.98;6.57;;;;;;;;;;4988663;28;20053;-74
2022/09/13 14:35:29;;;;;;;13.88;6.10;;;;;;;;;;4989146;28;20053;-75
2022/09/13 14:38:17;;;;;;;;;;;;;;;;;;4989717;28;20054;-73
2022/09/13 14:40:52;;;;;;;13.82;5.50;;;;;;;;;;5003743;28;19985;-75
2022/09/13 14:43:23;;;;;;;;;;;;;;;;;;4989504;28;20042;-73
2022/09/13 14:46:01;;;;;;;8.80;5.82;;;;;;;;;;4988861;28;20484;-75
2022/09/13 14:48:50;;;;;;;13.85;6.10;;;;;;;;;;5003350;28;20042;-73
2022/09/13 14:51:30;;;;;;;8.80;4.80;;;;;;;;;;4987576;28;20654;-73
2022/09/13 14:54:29;;;;;;;8.40;4.43;;;;;;;;;;4989287;28;20058;-73
2022/09/13 14:57:02;;;;;;;10.55;4.88;;;;;;;;;;4988427;28;20401;-75
2022/09/13 14:59:54;;;;;;;11.00;5.10;;;;;;;;;;4988060;28;20409;-74
2022/09/13 15:02:34;;;;;;;12.02;4.57;;;;;;;;;;4988160;28;20054;-75
2022/09/13 15:05:11;;;;;;;8.93;4.57;;;;;;;;;;4987116;28;20058;-72
2022/09/13 15:07:42;;;;;;;8.43;4.22;;;;;;;;;;4988149;28;20076;-75
2022/09/13 15:10:11;;;;;;;6.95;4.20;;;;;;;;;;4987693;28;20050;-74
2022/09/13 15:12:56;;;;;;;8.50;4.55;;;;;;;;;;4988052;28;20050;-72
2022/09/13 15:15:35;;;;;;;7.43;4.20;;;;;;;;;;4988495;28;20046;-73
2022/09/13 15:18:14;;;;;;;9.43;3.95;;;;;;;;;;4987996;28;20042;-75
2022/09/13 15:20:55;;;;;;;7.80;4.32;;;;;;;;;;4987995;28;20401;-74
2022/09/13 15:23:34;;;;;;;8.77;3.78;;;;;;;;;;4988655;28;20425;-73
2022/09/13 15:26:20;;;;;;;6.00;4.22;;;;;;;;;;4988234;28;20043;-72
2022/09/13 15:28:56;;;;;;;7.32;3.80;;;;;;;;;;4987926;28;20421;-74
2022/09/13 15:31:31;;;;;;;10.38;3.97;;;;;;;;;;4988232;28;20070;-73
2022/09/13 15:34:17;;;;;;;9.23;4.13;;;;;;;;;;4987779;28;20061;-74
2022/09/13 15:37:09;;;;;;;9.30;4.13;;;;;;;;;;4987967;28;20054;-73
2022/09/13 15:40:08;;;;;;;11.98;4.60;;;;;;;;;;4987840;28;20047;-73
2022/09/13 15:42:38;;;;;;;8.60;3.60;;;;;;;;;;4987872;28;20038;-74